sensor_id;sensor_type;location;lat;lon;timestamp;pressure;altitude;pressure_sealevel;temperature
60936;BMP280;46804;51.786;19.520;2023-05-07T00:02:07;155614.53;;;5.71
60936;BMP280;46804;51.786;19.520;2023-05-07T00:06:08;155622.25;;;5.74
60936;BMP280;46804;51.786;19.520;2023-05-07T00:10:10;155623.56;;;5.75
60936;BMP280;46804;51.786;19.520;2023-05-07T00:14:12;155654.22;;;5.86
60936;BMP280;46804;51.786;19.520;2023-05-07T00:18:13;155647.84;;;5.84
60936;BMP280;46804;51.786;19.520;2023-05-07T00:22:14;155641.47;;;5.81
60936;BMP280;46804;51.786;19.520;2023-05-07T00:26:15;155641.47;;;5.81
60936;BMP280;46804;51.786;19.520;2023-05-07T00:30:16;155629.94;;;5.77
60936;BMP280;46804;51.786;19.520;2023-05-07T00:34:17;155612.00;;;5.70
60936;BMP280;46804;51.786;19.520;2023-05-07T00:38:17;155642.72;;;5.82
60936;BMP280;46804;51.786;19.520;2023-05-07T00:42:18;155629.94;;;5.77
60936;BMP280;46804;51.786;19.520;2023-05-07T00:46:20;155618.44;;;5.73
60936;BMP280;46804;51.786;19.520;2023-05-07T00:50:21;155581.31;;;5.58
60936;BMP280;46804;51.786;19.520;2023-05-07T00:54:22;155605.63;;;5.68
60936;BMP280;46804;51.786;19.520;2023-05-07T00:58:23;155608.16;;;5.69
60936;BMP280;46804;51.786;19.520;2023-05-07T01:02:24;155605.63;;;5.68
60936;BMP280;46804;51.786;19.520;2023-05-07T01:06:25;155605.63;;;5.68
60936;BMP280;46804;51.786;19.520;2023-05-07T01:10:28;155580.03;;;5.58
60936;BMP280;46804;51.786;19.520;2023-05-07T01:14:31;155565.94;;;5.52
60936;BMP280;46804;51.786;19.520;2023-05-07T01:18:33;155612.00;;;5.70
60936;BMP280;46804;51.786;19.520;2023-05-07T01:22:35;155589.00;;;5.61
60936;BMP280;46804;51.786;19.520;2023-05-07T01:26:39;155564.69;;;5.52
60936;BMP280;46804;51.786;19.520;2023-05-07T01:30:45;155583.88;;;5.59
60936;BMP280;46804;51.786;19.520;2023-05-07T01:34:48;155573.66;;;5.55
60936;BMP280;46804;51.786;19.520;2023-05-07T01:38:49;155596.66;;;5.64
60936;BMP280;46804;51.786;19.520;2023-05-07T01:42:50;155586.41;;;5.60
60936;BMP280;46804;51.786;19.520;2023-05-07T01:46:51;155599.19;;;5.65
60936;BMP280;46804;51.786;19.520;2023-05-07T01:50:52;155609.44;;;5.69
60936;BMP280;46804;51.786;19.520;2023-05-07T01:54:53;155614.53;;;5.71
60936;BMP280;46804;51.786;19.520;2023-05-07T01:58:54;155599.19;;;5.65
60936;BMP280;46804;51.786;19.520;2023-05-07T02:02:54;155620.97;;;5.74
60936;BMP280;46804;51.786;19.520;2023-05-07T02:06:56;155622.25;;;5.74
60936;BMP280;46804;51.786;19.520;2023-05-07T02:10:56;155599.19;;;5.65
60936;BMP280;46804;51.786;19.520;2023-05-07T02:14:57;155596.66;;;5.64
60936;BMP280;46804;51.786;19.520;2023-05-07T02:18:58;155586.41;;;5.60
60936;BMP280;46804;51.786;19.520;2023-05-07T02:22:58;155580.03;;;5.58
60936;BMP280;46804;51.786;19.520;2023-05-07T02:26:59;155578.75;;;5.57
60936;BMP280;46804;51.786;19.520;2023-05-07T02:31:02;155586.41;;;5.60
60936;BMP280;46804;51.786;19.520;2023-05-07T02:35:03;155590.28;;;5.62
60936;BMP280;46804;51.786;19.520;2023-05-07T02:39:04;155563.41;;;5.51
60936;BMP280;46804;51.786;19.520;2023-05-07T02:43:05;155540.41;;;5.42
60936;BMP280;46804;51.786;19.520;2023-05-07T02:47:06;155554.44;;;5.48
60936;BMP280;46804;51.786;19.520;2023-05-07T02:51:09;155568.53;;;5.53
60936;BMP280;46804;51.786;19.520;2023-05-07T02:55:09;155519.94;;;5.35
60936;BMP280;46804;51.786;19.520;2023-05-07T02:59:11;155505.91;;;5.29
60936;BMP280;46804;51.786;19.520;2023-05-07T03:03:11;155537.81;;;5.41
60936;BMP280;46804;51.786;19.520;2023-05-07T03:07:12;155535.28;;;5.40
60936;BMP280;46804;51.786;19.520;2023-05-07T03:11:13;155540.41;;;5.42
60936;BMP280;46804;51.786;19.520;2023-05-07T03:15:13;155522.53;;;5.36
60936;BMP280;46804;51.786;19.520;2023-05-07T03:19:14;155527.63;;;5.38
60936;BMP280;46804;51.786;19.520;2023-05-07T03:23:15;155509.75;;;5.31
60936;BMP280;46804;51.786;19.520;2023-05-07T03:27:15;155519.94;;;5.35
60936;BMP280;46804;51.786;19.520;2023-05-07T03:31:16;155523.78;;;5.36
60936;BMP280;46804;51.786;19.520;2023-05-07T03:35:17;155511.03;;;5.31
60936;BMP280;46804;51.786;19.520;2023-05-07T03:39:17;155512.28;;;5.32
60936;BMP280;46804;51.786;19.520;2023-05-07T03:43:18;155512.28;;;5.32
60936;BMP280;46804;51.786;19.520;2023-05-07T03:47:19;155511.03;;;5.31
60936;BMP280;46804;51.786;19.520;2023-05-07T03:51:19;155512.28;;;5.32
60936;BMP280;46804;51.786;19.520;2023-05-07T03:55:20;155522.53;;;5.36
60936;BMP280;46804;51.786;19.520;2023-05-07T03:59:21;155519.94;;;5.35
60936;BMP280;46804;51.786;19.520;2023-05-07T04:03:22;155496.94;;;5.26
60936;BMP280;46804;51.786;19.520;2023-05-07T04:07:23;155495.66;;;5.25
60936;BMP280;46804;51.786;19.520;2023-05-07T04:11:23;155496.94;;;5.26
60936;BMP280;46804;51.786;19.520;2023-05-07T04:15:24;155508.44;;;5.30
60936;BMP280;46804;51.786;19.520;2023-05-07T04:19:25;155485.44;;;5.21
60936;BMP280;46804;51.786;19.520;2023-05-07T04:23:26;155512.28;;;5.32
60936;BMP280;46804;51.786;19.520;2023-05-07T04:27:27;155508.44;;;5.30
60936;BMP280;46804;51.786;19.520;2023-05-07T04:31:28;155532.75;;;5.40
60936;BMP280;46804;51.786;19.520;2023-05-07T04:35:29;155523.78;;;5.36
60936;BMP280;46804;51.786;19.520;2023-05-07T04:39:29;155541.69;;;5.43
60936;BMP280;46804;51.786;19.520;2023-05-07T04:43:30;155551.91;;;5.47
60936;BMP280;46804;51.786;19.520;2023-05-07T04:47:31;155591.53;;;5.62
60936;BMP280;46804;51.786;19.520;2023-05-07T04:51:32;155589.00;;;5.61
60936;BMP280;46804;51.786;19.520;2023-05-07T04:55:33;155563.41;;;5.51
60936;BMP280;46804;51.786;19.520;2023-05-07T04:59:33;155565.94;;;5.52
60936;BMP280;46804;51.786;19.520;2023-05-07T05:03:34;155589.00;;;5.61
60936;BMP280;46804;51.786;19.520;2023-05-07T05:07:34;155580.03;;;5.58
60936;BMP280;46804;51.786;19.520;2023-05-07T05:11:35;155604.31;;;5.67
60936;BMP280;46804;51.786;19.520;2023-05-07T05:15:36;155595.38;;;5.64
60936;BMP280;46804;51.786;19.520;2023-05-07T05:19:36;155614.53;;;5.71
60936;BMP280;46804;51.786;19.520;2023-05-07T05:23:37;155601.78;;;5.66
60936;BMP280;46804;51.786;19.520;2023-05-07T05:27:39;155582.56;;;5.59
60936;BMP280;46804;51.786;19.520;2023-05-07T05:31:40;155604.31;;;5.67
60936;BMP280;46804;51.786;19.520;2023-05-07T05:35:42;155622.25;;;5.74
60936;BMP280;46804;51.786;19.520;2023-05-07T05:39:42;155624.84;;;5.75
60936;BMP280;46804;51.786;19.520;2023-05-07T05:43:43;155642.72;;;5.82
60936;BMP280;46804;51.786;19.520;2023-05-07T05:47:44;155640.19;;;5.81
60936;BMP280;46804;51.786;19.520;2023-05-07T05:51:45;155617.19;;;5.72
60936;BMP280;46804;51.786;19.520;2023-05-07T05:55:45;155651.69;;;5.85
60936;BMP280;46804;51.786;19.520;2023-05-07T05:59:46;155646.56;;;5.83
60936;BMP280;46804;51.786;19.520;2023-05-07T06:03:47;155615.84;;;5.72
60936;BMP280;46804;51.786;19.520;2023-05-07T06:07:48;155652.97;;;5.86
60936;BMP280;46804;51.786;19.520;2023-05-07T06:11:49;155682.34;;;5.97
60936;BMP280;46804;51.786;19.520;2023-05-07T06:15:50;155675.97;;;5.95
60936;BMP280;46804;51.786;19.520;2023-05-07T06:19:51;155677.25;;;5.95
60936;BMP280;46804;51.786;19.520;2023-05-07T06:23:52;155681.09;;;5.97
60936;BMP280;46804;51.786;19.520;2023-05-07T06:27:53;155696.44;;;6.03
60936;BMP280;46804;51.786;19.520;2023-05-07T06:31:53;155710.50;;;6.08
60936;BMP280;46804;51.786;19.520;2023-05-07T06:35:54;155686.22;;;5.99
60936;BMP280;46804;51.786;19.520;2023-05-07T06:39:55;155754.00;;;6.25
60936;BMP280;46804;51.786;19.520;2023-05-07T06:43:56;155752.72;;;6.24
60936;BMP280;46804;51.786;19.520;2023-05-07T06:47:56;155751.41;;;6.24
60936;BMP280;46804;51.786;19.520;2023-05-07T06:51:57;155771.88;;;6.32
60936;BMP280;46804;51.786;19.520;2023-05-07T06:55:58;155803.88;;;6.44
60936;BMP280;46804;51.786;19.520;2023-05-07T06:59:58;155796.19;;;6.41
60936;BMP280;46804;51.786;19.520;2023-05-07T07:03:59;155816.66;;;6.49
60936;BMP280;46804;51.786;19.520;2023-05-07T07:08:00;155835.84;;;6.56
60936;BMP280;46804;51.786;19.520;2023-05-07T07:12:01;155856.31;;;6.64
60936;BMP280;46804;51.786;19.520;2023-05-07T07:16:02;155871.69;;;6.70
60936;BMP280;46804;51.786;19.520;2023-05-07T07:20:03;155862.72;;;6.67
60936;BMP280;46804;51.786;19.520;2023-05-07T07:24:04;155885.75;;;6.76
60936;BMP280;46804;51.786;19.520;2023-05-07T07:28:05;155931.81;;;6.93
60936;BMP280;46804;51.786;19.520;2023-05-07T07:32:06;155910.03;;;6.85
60936;BMP280;46804;51.786;19.520;2023-05-07T07:36:07;155922.88;;;6.90
60936;BMP280;46804;51.786;19.520;2023-05-07T07:40:08;155863.97;;;6.67
60936;BMP280;46804;51.786;19.520;2023-05-07T07:44:09;155906.25;;;6.83
60936;BMP280;46804;51.786;19.520;2023-05-07T07:48:13;155856.31;;;6.64
60936;BMP280;46804;51.786;19.520;2023-05-07T07:52:13;155885.75;;;6.76
60936;BMP280;46804;51.786;19.520;2023-05-07T07:56:14;155880.63;;;6.74
60936;BMP280;46804;51.786;19.520;2023-05-07T08:00:15;155910.03;;;6.85
60936;BMP280;46804;51.786;19.520;2023-05-07T08:04:16;155951.03;;;7.01
60936;BMP280;46804;51.786;19.520;2023-05-07T08:08:17;155929.25;;;6.92
60936;BMP280;46804;51.786;19.520;2023-05-07T08:12:18;155936.94;;;6.95
60936;BMP280;46804;51.786;19.520;2023-05-07T08:16:19;155956.16;;;7.03
60936;BMP280;46804;51.786;19.520;2023-05-07T08:20:20;155967.66;;;7.07
60936;BMP280;46804;51.786;19.520;2023-05-07T08:24:21;155997.09;;;7.18
60936;BMP280;46804;51.786;19.520;2023-05-07T08:28:21;156085.41;;;7.52
60936;BMP280;46804;51.786;19.520;2023-05-07T08:32:22;156070.06;;;7.46
60936;BMP280;46804;51.786;19.520;2023-05-07T08:36:23;156035.50;;;7.33
60936;BMP280;46804;51.786;19.520;2023-05-07T08:40:25;156090.53;;;7.54
60936;BMP280;46804;51.786;19.520;2023-05-07T08:44:26;156126.41;;;7.68
60936;BMP280;46804;51.786;19.520;2023-05-07T08:48:29;156164.81;;;7.83
60936;BMP280;46804;51.786;19.520;2023-05-07T08:52:31;156201.94;;;7.97
60936;BMP280;46804;51.786;19.520;2023-05-07T08:56:32;156181.44;;;7.89
60936;BMP280;46804;51.786;19.520;2023-05-07T09:00:33;156242.97;;;8.13
60936;BMP280;46804;51.786;19.520;2023-05-07T09:04:35;156275.00;;;8.25
60936;BMP280;46804;51.786;19.520;2023-05-07T09:08:36;156255.81;;;8.18
60936;BMP280;46804;51.786;19.520;2023-05-07T09:12:37;156278.88;;;8.27
60936;BMP280;46804;51.786;19.520;2023-05-07T09:16:39;156208.34;;;8.00
60936;BMP280;46804;51.786;19.520;2023-05-07T09:20:40;156184.03;;;7.90
60936;BMP280;46804;51.786;19.520;2023-05-07T09:24:47;156162.25;;;7.82
60936;BMP280;46804;51.786;19.520;2023-05-07T09:28:47;156236.56;;;8.11
60936;BMP280;46804;51.786;19.520;2023-05-07T09:32:48;156282.69;;;8.28
60936;BMP280;46804;51.786;19.520;2023-05-07T09:36:49;156344.19;;;8.52
60936;BMP280;46804;51.786;19.520;2023-05-07T09:41:02;156408.28;;;8.77
60936;BMP280;46804;51.786;19.520;2023-05-07T09:45:05;156385.19;;;8.68
60936;BMP280;46804;51.786;19.520;2023-05-07T09:49:07;156344.19;;;8.52
60936;BMP280;46804;51.786;19.520;2023-05-07T09:53:09;156376.22;;;8.64
60936;BMP280;46804;51.786;19.520;2023-05-07T09:57:11;156441.56;;;8.89
60936;BMP280;46804;51.786;19.520;2023-05-07T10:01:13;156474.91;;;9.02
60936;BMP280;46804;51.786;19.520;2023-05-07T10:05:14;156406.97;;;8.76
60936;BMP280;46804;51.786;19.520;2023-05-07T10:09:16;156385.19;;;8.68
60936;BMP280;46804;51.786;19.520;2023-05-07T10:13:18;156346.78;;;8.53
60936;BMP280;46804;51.786;19.520;2023-05-07T10:17:19;156422.34;;;8.82
60936;BMP280;46804;51.786;19.520;2023-05-07T10:21:23;156468.50;;;9.00
60936;BMP280;46804;51.786;19.520;2023-05-07T10:25:29;156435.16;;;8.87
60936;BMP280;46804;51.786;19.520;2023-05-07T10:33:59;156590.31;;;9.47
60936;BMP280;46804;51.786;19.520;2023-05-07T10:38:00;156612.09;;;9.55
60936;BMP280;46804;51.786;19.520;2023-05-07T10:42:10;156572.34;;;9.40
60936;BMP280;46804;51.786;19.520;2023-05-07T10:46:15;156664.69;;;9.75
60936;BMP280;46804;51.786;19.520;2023-05-07T10:54:18;156835.34;;;10.41
60936;BMP280;46804;51.786;19.520;2023-05-07T10:58:26;156826.34;;;10.37
60936;BMP280;46804;51.786;19.520;2023-05-07T11:11:09;156721.16;;;9.97
60936;BMP280;46804;51.786;19.520;2023-05-07T11:15:10;156680.09;;;9.81
60936;BMP280;46804;51.786;19.520;2023-05-07T11:19:11;156610.78;;;9.54
60936;BMP280;46804;51.786;19.520;2023-05-07T11:27:35;156812.25;;;10.32
60936;BMP280;46804;51.786;19.520;2023-05-07T11:31:36;156893.06;;;10.63
60936;BMP280;46804;51.786;19.520;2023-05-07T11:35:37;156823.78;;;10.36
60936;BMP280;46804;51.786;19.520;2023-05-07T11:39:38;156968.84;;;10.92
60936;BMP280;46804;51.786;19.520;2023-05-07T11:43:53;157027.88;;;11.15
60936;BMP280;46804;51.786;19.520;2023-05-07T11:47:55;157045.84;;;11.21
60936;BMP280;46804;51.786;19.520;2023-05-07T11:51:56;157277.06;;;12.10
60936;BMP280;46804;51.786;19.520;2023-05-07T11:55:56;157237.25;;;11.95
60936;BMP280;46804;51.786;19.520;2023-05-07T11:59:58;157178.13;;;11.72
60936;BMP280;46804;51.786;19.520;2023-05-07T12:04:03;157119.06;;;11.50
60936;BMP280;46804;51.786;19.520;2023-05-07T12:08:04;157090.78;;;11.39
60936;BMP280;46804;51.786;19.520;2023-05-07T12:12:05;157041.97;;;11.20
60936;BMP280;46804;51.786;19.520;2023-05-07T12:16:06;157054.84;;;11.25
60936;BMP280;46804;51.786;19.520;2023-05-07T12:20:08;157047.09;;;11.22
60936;BMP280;46804;51.786;19.520;2023-05-07T12:24:08;157059.97;;;11.27
60936;BMP280;46804;51.786;19.520;2023-05-07T12:28:12;157101.09;;;11.43
60936;BMP280;46804;51.786;19.520;2023-05-07T12:32:15;157156.34;;;11.64
60936;BMP280;46804;51.786;19.520;2023-05-07T12:36:16;157008.63;;;11.07
60936;BMP280;46804;51.786;19.520;2023-05-07T12:40:17;156995.75;;;11.02
60936;BMP280;46804;51.786;19.520;2023-05-07T12:44:18;156962.38;;;10.89
60936;BMP280;46804;51.786;19.520;2023-05-07T12:48:22;156930.31;;;10.77
60936;BMP280;46804;51.786;19.520;2023-05-07T12:52:23;156899.50;;;10.65
60936;BMP280;46804;51.786;19.520;2023-05-07T12:56:24;156890.53;;;10.62
60936;BMP280;46804;51.786;19.520;2023-05-07T13:00:35;156885.41;;;10.60
60936;BMP280;46804;51.786;19.520;2023-05-07T13:04:36;156900.81;;;10.66
60936;BMP280;46804;51.786;19.520;2023-05-07T13:08:40;156813.53;;;10.32
60936;BMP280;46804;51.786;19.520;2023-05-07T13:12:41;156800.69;;;10.27
60936;BMP280;46804;51.786;19.520;2023-05-07T13:16:42;156790.44;;;10.23
60936;BMP280;46804;51.786;19.520;2023-05-07T13:20:43;156922.59;;;10.74
60936;BMP280;46804;51.786;19.520;2023-05-07T13:24:43;156881.53;;;10.58
60936;BMP280;46804;51.786;19.520;2023-05-07T13:28:44;156834.06;;;10.40
60936;BMP280;46804;51.786;19.520;2023-05-07T13:32:44;156813.53;;;10.32
60936;BMP280;46804;51.786;19.520;2023-05-07T13:36:48;156812.25;;;10.32
60936;BMP280;46804;51.786;19.520;2023-05-07T13:40:48;156895.66;;;10.64
60936;BMP280;46804;51.786;19.520;2023-05-07T13:44:49;157008.63;;;11.07
60936;BMP280;46804;51.786;19.520;2023-05-07T13:48:50;157110.06;;;11.46
60936;BMP280;46804;51.786;19.520;2023-05-07T13:52:51;157142.19;;;11.58
60936;BMP280;46804;51.786;19.520;2023-05-07T13:56:52;157143.47;;;11.59
60936;BMP280;46804;51.786;19.520;2023-05-07T14:00:52;157125.50;;;11.52
60936;BMP280;46804;51.786;19.520;2023-05-07T14:04:53;157039.41;;;11.19
60936;BMP280;46804;51.786;19.520;2023-05-07T14:08:54;156970.09;;;10.92
60936;BMP280;46804;51.786;19.520;2023-05-07T14:12:55;156949.56;;;10.84
60936;BMP280;46804;51.786;19.520;2023-05-07T14:16:57;156975.25;;;10.94
60936;BMP280;46804;51.786;19.520;2023-05-07T14:20:57;157031.72;;;11.16
60936;BMP280;46804;51.786;19.520;2023-05-07T14:24:58;157074.06;;;11.32
60936;BMP280;46804;51.786;19.520;2023-05-07T14:28:59;157017.59;;;11.11
60936;BMP280;46804;51.786;19.520;2023-05-07T14:32:59;157074.06;;;11.32
60936;BMP280;46804;51.786;19.520;2023-05-07T14:37:00;157003.50;;;11.05
60936;BMP280;46804;51.786;19.520;2023-05-07T14:41:01;157030.41;;;11.16
60936;BMP280;46804;51.786;19.520;2023-05-07T14:45:02;157062.53;;;11.28
60936;BMP280;46804;51.786;19.520;2023-05-07T14:49:04;157049.69;;;11.23
60936;BMP280;46804;51.786;19.520;2023-05-07T14:53:05;157062.53;;;11.28
60936;BMP280;46804;51.786;19.520;2023-05-07T14:57:07;157098.47;;;11.42
60936;BMP280;46804;51.786;19.520;2023-05-07T15:01:09;157106.25;;;11.45
60936;BMP280;46804;51.786;19.520;2023-05-07T15:05:10;157142.19;;;11.58
60936;BMP280;46804;51.786;19.520;2023-05-07T15:09:10;157111.38;;;11.47
60936;BMP280;46804;51.786;19.520;2023-05-07T15:13:11;157041.97;;;11.20
60936;BMP280;46804;51.786;19.520;2023-05-07T15:17:12;157101.09;;;11.43
60936;BMP280;46804;51.786;19.520;2023-05-07T15:21:15;157185.88;;;11.75
60936;BMP280;46804;51.786;19.520;2023-05-07T15:25:16;157126.75;;;11.52
60936;BMP280;46804;51.786;19.520;2023-05-07T15:29:17;157098.47;;;11.42
60936;BMP280;46804;51.786;19.520;2023-05-07T15:33:17;156991.94;;;11.01
60936;BMP280;46804;51.786;19.520;2023-05-07T15:37:18;156970.09;;;10.92
60936;BMP280;46804;51.786;19.520;2023-05-07T15:41:19;156939.28;;;10.81
60936;BMP280;46804;51.786;19.520;2023-05-07T15:45:21;156911.03;;;10.70
60936;BMP280;46804;51.786;19.520;2023-05-07T15:49:21;156859.72;;;10.50
60936;BMP280;46804;51.786;19.520;2023-05-07T15:53:22;156889.25;;;10.61
60936;BMP280;46804;51.786;19.520;2023-05-07T15:57:23;156878.97;;;10.57
60936;BMP280;46804;51.786;19.520;2023-05-07T16:01:24;156908.50;;;10.69
60936;BMP280;46804;51.786;19.520;2023-05-07T16:05:25;156858.44;;;10.50
60936;BMP280;46804;51.786;19.520;2023-05-07T16:09:26;156809.66;;;10.31
60936;BMP280;46804;51.786;19.520;2023-05-07T16:13:28;156853.28;;;10.48
60936;BMP280;46804;51.786;19.520;2023-05-07T16:17:29;156809.66;;;10.31
60936;BMP280;46804;51.786;19.520;2023-05-07T16:21:30;156769.88;;;10.16
60936;BMP280;46804;51.786;19.520;2023-05-07T16:25:30;156742.97;;;10.05
60936;BMP280;46804;51.786;19.520;2023-05-07T16:29:31;156742.97;;;10.05
60936;BMP280;46804;51.786;19.520;2023-05-07T16:33:32;156708.34;;;9.92
60936;BMP280;46804;51.786;19.520;2023-05-07T16:37:33;156735.25;;;10.02
60936;BMP280;46804;51.786;19.520;2023-05-07T16:41:34;156682.63;;;9.82
60936;BMP280;46804;51.786;19.520;2023-05-07T16:45:35;156687.75;;;9.84
60936;BMP280;46804;51.786;19.520;2023-05-07T16:49:36;156692.91;;;9.86
60936;BMP280;46804;51.786;19.520;2023-05-07T16:53:37;156662.09;;;9.74
60936;BMP280;46804;51.786;19.520;2023-05-07T16:57:37;156622.34;;;9.59
60936;BMP280;46804;51.786;19.520;2023-05-07T17:01:38;156600.56;;;9.50
60936;BMP280;46804;51.786;19.520;2023-05-07T17:05:40;156559.50;;;9.35
60936;BMP280;46804;51.786;19.520;2023-05-07T17:09:41;156500.56;;;9.12
60936;BMP280;46804;51.786;19.520;2023-05-07T17:13:42;156523.63;;;9.21
60936;BMP280;46804;51.786;19.520;2023-05-07T17:17:43;156492.88;;;9.09
60936;BMP280;46804;51.786;19.520;2023-05-07T17:21:43;156487.75;;;9.07
60936;BMP280;46804;51.786;19.520;2023-05-07T17:25:44;156456.97;;;8.95
60936;BMP280;46804;51.786;19.520;2023-05-07T17:29:45;156406.97;;;8.76
60936;BMP280;46804;51.786;19.520;2023-05-07T17:33:45;156354.44;;;8.56
60936;BMP280;46804;51.786;19.520;2023-05-07T17:37:46;156331.38;;;8.47
60936;BMP280;46804;51.786;19.520;2023-05-07T17:41:51;156344.19;;;8.52
60936;BMP280;46804;51.786;19.520;2023-05-07T17:45:52;156323.72;;;8.44
60936;BMP280;46804;51.786;19.520;2023-05-07T17:49:53;156330.09;;;8.47
60936;BMP280;46804;51.786;19.520;2023-05-07T17:53:54;156291.66;;;8.32
60936;BMP280;46804;51.786;19.520;2023-05-07T17:57:56;156263.47;;;8.21
60936;BMP280;46804;51.786;19.520;2023-05-07T18:01:57;156203.22;;;7.98
60936;BMP280;46804;51.786;19.520;2023-05-07T18:05:57;156159.69;;;7.81
60936;BMP280;46804;51.786;19.520;2023-05-07T18:09:59;156146.84;;;7.76
60936;BMP280;46804;51.786;19.520;2023-05-07T18:14:00;156122.56;;;7.67
60936;BMP280;46804;51.786;19.520;2023-05-07T18:18:00;156087.97;;;7.53
60936;BMP280;46804;51.786;19.520;2023-05-07T18:22:02;156075.19;;;7.48
60936;BMP280;46804;51.786;19.520;2023-05-07T18:26:02;156034.19;;;7.33
60936;BMP280;46804;51.786;19.520;2023-05-07T18:30:03;156009.88;;;7.23
60936;BMP280;46804;51.786;19.520;2023-05-07T18:34:04;155967.66;;;7.07
60936;BMP280;46804;51.786;19.520;2023-05-07T18:38:05;155953.56;;;7.02
60936;BMP280;46804;51.786;19.520;2023-05-07T18:42:06;155921.56;;;6.89
60936;BMP280;46804;51.786;19.520;2023-05-07T18:46:08;155911.34;;;6.85
60936;BMP280;46804;51.786;19.520;2023-05-07T18:50:09;155880.63;;;6.74
60936;BMP280;46804;51.786;19.520;2023-05-07T18:54:09;155866.56;;;6.68
60936;BMP280;46804;51.786;19.520;2023-05-07T18:58:11;155853.72;;;6.63
60936;BMP280;46804;51.786;19.520;2023-05-07T19:02:12;155832.03;;;6.55
60936;BMP280;46804;51.786;19.520;2023-05-07T19:06:16;155798.75;;;6.42
60936;BMP280;46804;51.786;19.520;2023-05-07T19:10:16;155780.88;;;6.35
60936;BMP280;46804;51.786;19.520;2023-05-07T19:14:17;155756.53;;;6.26
60936;BMP280;46804;51.786;19.520;2023-05-07T19:18:18;155727.13;;;6.14
60936;BMP280;46804;51.786;19.520;2023-05-07T19:22:19;155706.66;;;6.07
60936;BMP280;46804;51.786;19.520;2023-05-07T19:26:19;155706.66;;;6.07
60936;BMP280;46804;51.786;19.520;2023-05-07T19:30:20;155699.00;;;6.04
60936;BMP280;46804;51.786;19.520;2023-05-07T19:34:22;155702.84;;;6.05
60936;BMP280;46804;51.786;19.520;2023-05-07T19:38:24;155693.88;;;6.02
60936;BMP280;46804;51.786;19.520;2023-05-07T19:42:25;155678.50;;;5.96
60936;BMP280;46804;51.786;19.520;2023-05-07T19:46:26;155675.97;;;5.95
60936;BMP280;46804;51.786;19.520;2023-05-07T19:50:27;155655.50;;;5.87
60936;BMP280;46804;51.786;19.520;2023-05-07T19:54:28;155641.47;;;5.81
60936;BMP280;46804;51.786;19.520;2023-05-07T19:58:29;155628.69;;;5.76
60936;BMP280;46804;51.786;19.520;2023-05-07T20:02:30;155618.44;;;5.73
60936;BMP280;46804;51.786;19.520;2023-05-07T20:06:30;155626.09;;;5.75
60936;BMP280;46804;51.786;19.520;2023-05-07T20:10:31;155609.44;;;5.69
60936;BMP280;46804;51.786;19.520;2023-05-07T20:14:32;155595.38;;;5.64
60936;BMP280;46804;51.786;19.520;2023-05-07T20:18:33;155585.16;;;5.60
60936;BMP280;46804;51.786;19.520;2023-05-07T20:22:34;155559.56;;;5.50
60936;BMP280;46804;51.786;19.520;2023-05-07T20:26:34;155545.53;;;5.44
60936;BMP280;46804;51.786;19.520;2023-05-07T20:30:35;155534.03;;;5.40
60936;BMP280;46804;51.786;19.520;2023-05-07T20:34:36;155519.94;;;5.35
60936;BMP280;46804;51.786;19.520;2023-05-07T20:38:37;155523.78;;;5.36
60936;BMP280;46804;51.786;19.520;2023-05-07T20:42:37;155509.75;;;5.31
60936;BMP280;46804;51.786;19.520;2023-05-07T20:46:38;155498.19;;;5.26
60936;BMP280;46804;51.786;19.520;2023-05-07T20:50:39;155471.41;;;5.16
60936;BMP280;46804;51.786;19.520;2023-05-07T20:54:40;155471.41;;;5.16
60936;BMP280;46804;51.786;19.520;2023-05-07T20:58:44;155499.53;;;5.27
60936;BMP280;46804;51.786;19.520;2023-05-07T21:02:45;155526.31;;;5.37
60936;BMP280;46804;51.786;19.520;2023-05-07T21:06:47;155495.66;;;5.25
60936;BMP280;46804;51.786;19.520;2023-05-07T21:10:48;155485.44;;;5.21
60936;BMP280;46804;51.786;19.520;2023-05-07T21:14:50;155443.28;;;5.05
60936;BMP280;46804;51.786;19.520;2023-05-07T21:18:51;155449.66;;;5.07
60936;BMP280;46804;51.786;19.520;2023-05-07T21:22:52;155466.28;;;5.14
60936;BMP280;46804;51.786;19.520;2023-05-07T21:26:53;155447.09;;;5.06
60936;BMP280;46804;51.786;19.520;2023-05-07T21:30:55;155398.56;;;4.88
60936;BMP280;46804;51.786;19.520;2023-05-07T21:34:57;155406.22;;;4.91
60936;BMP280;46804;51.786;19.520;2023-05-07T21:38:58;155407.47;;;4.91
60936;BMP280;46804;51.786;19.520;2023-05-07T21:42:59;155417.72;;;4.95
60936;BMP280;46804;51.786;19.520;2023-05-07T21:47:00;155385.81;;;4.83
60936;BMP280;46804;51.786;19.520;2023-05-07T21:51:01;155362.75;;;4.74
60936;BMP280;46804;51.786;19.520;2023-05-07T21:55:03;155361.50;;;4.73
60936;BMP280;46804;51.786;19.520;2023-05-07T21:59:03;155346.19;;;4.68
60936;BMP280;46804;51.786;19.520;2023-05-07T22:03:04;155344.88;;;4.67
60936;BMP280;46804;51.786;19.520;2023-05-07T22:07:05;155348.75;;;4.69
60936;BMP280;46804;51.786;19.520;2023-05-07T22:11:07;155333.41;;;4.63
60936;BMP280;46804;51.786;19.520;2023-05-07T22:15:08;155355.13;;;4.71
60936;BMP280;46804;51.786;19.520;2023-05-07T22:19:09;155320.63;;;4.58
60936;BMP280;46804;51.786;19.520;2023-05-07T22:23:10;155302.75;;;4.51
60936;BMP280;46804;51.786;19.520;2023-05-07T22:27:10;155313.00;;;4.55
60936;BMP280;46804;51.786;19.520;2023-05-07T22:31:11;155297.66;;;4.49
60936;BMP280;46804;51.786;19.520;2023-05-07T22:35:12;155290.00;;;4.46
60936;BMP280;46804;51.786;19.520;2023-05-07T22:39:13;155281.03;;;4.42
60936;BMP280;46804;51.786;19.520;2023-05-07T22:43:14;155275.94;;;4.40
60936;BMP280;46804;51.786;19.520;2023-05-07T22:47:15;155274.66;;;4.40
60936;BMP280;46804;51.786;19.520;2023-05-07T22:51:15;155279.78;;;4.42
60936;BMP280;46804;51.786;19.520;2023-05-07T22:55:16;155263.16;;;4.36
60936;BMP280;46804;51.786;19.520;2023-05-07T22:59:17;155250.41;;;4.31
60936;BMP280;46804;51.786;19.520;2023-05-07T23:03:18;155238.88;;;4.26
60936;BMP280;46804;51.786;19.520;2023-05-07T23:07:19;155219.75;;;4.19